Time;durP1;ratioP1;P1;durP2;ratioP2;P2;SDS_P1;SDS_P2;PMS_P1;PMS_P2;Temp;Humidity;BMP_temperature;BMP_pressure;BME280_temperature;BME280_humidity;BME280_pressure;Samples;Min_cycle;Max_cycle;Signal;HPM_P1;HPM_P2
2021/12/09 00:01:49;;;;;;;;;;;;;;;-3.90;100.00;90349.34;5092003;28;20321;-67
2021/12/09 00:04:18;;;;;;;;;;;;;;;-3.88;100.00;90346.50;5092287;28;19953;-66
2021/12/09 00:06:45;;;;;;;;;;;;;;;-3.91;100.00;90347.78;5092197;28;19999;-67
2021/12/09 00:09:12;;;;;;;;;;;;;;;-3.88;100.00;90362.88;5092208;28;20411;-66
2021/12/09 00:11:46;;;;;;;;;;;;;;;-3.80;100.00;90353.91;5092075;28;19924;-67
2021/12/09 00:14:13;;;;;;;;;;;;;;;-3.80;100.00;90353.91;5092118;28;19966;-66
2021/12/09 00:16:39;;;;;;;;;;;;;;;-3.80;100.00;90354.69;5088598;28;19916;-66
2021/12/09 00:19:04;;;;;;;;;;;;;;;-3.89;100.00;90340.53;5092005;28;19981;-66
2021/12/09 00:21:29;;;;;;;;;;;;;;;-3.93;100.00;90348.00;5073904;28;19916;-66
2021/12/09 00:23:55;;;;;;;;;;;;;;;-3.99;100.00;90356.72;5092022;28;19920;-66
2021/12/09 00:26:20;;;;;;;;;;;;;;;-3.88;100.00;90368.09;5091997;28;20018;-66
2021/12/09 00:28:46;;;;;;;;;;;;;;;-3.81;100.00;90363.50;5091970;28;19917;-66
2021/12/09 00:31:12;;;;;;;;;;;;;;;-3.83;100.00;90359.56;5091895;28;20381;-66
2021/12/09 00:33:43;;;;;;;;;;;;;;;-3.78;100.00;90357.84;5091813;28;19967;-66
2021/12/09 00:36:09;;;;;;;;;;;;;;;-3.83;100.00;90356.97;5091952;28;20378;-66
2021/12/09 00:38:37;;;;;;;;;;;;;;;-3.79;100.00;90358.06;5091797;28;19916;-66
2021/12/09 00:41:09;;;;;;;;;;;;;;;-3.80;100.00;90348.69;5091905;28;19923;-66
2021/12/09 00:43:35;;;;;;;;;;;;;;;-3.86;100.00;90339.25;5091698;28;20313;-66
2021/12/09 00:46:01;;;;;;;;;;;;;;;-3.84;100.00;90327.59;5091775;28;19916;-66
2021/12/09 00:48:27;;;;;;;;;;;;;;;-3.78;100.00;90336.28;5091795;28;19916;-66
2021/12/09 00:50:53;;;;;;;;;;;;;;;-3.77;100.00;90337.84;5091748;28;20317;-66
2021/12/09 00:53:18;;;;;;;;;;;;;;;-3.74;100.00;90321.78;5091580;28;19951;-66
2021/12/09 00:55:44;;;;;;;;;;;;;;;-3.69;100.00;90320.03;5091688;28;19943;-66
2021/12/09 00:58:10;;;;;;;;;;;;;;;-3.68;100.00;90315.63;5091678;28;19916;-66
2021/12/09 01:00:35;;;;;;;;;;;;;;;-3.70;100.00;90309.88;5091534;28;19996;-66
2021/12/09 01:03:00;;;;;;;;;;;;;;;-3.78;100.00;90305.88;5091243;28;20386;-66
2021/12/09 01:05:26;;;;;;;;;;;;;;;-3.77;100.00;90298.88;5091579;28;20450;-66
2021/12/09 01:07:52;;;;;;;;;;;;;;;-3.73;100.00;90292.16;5091669;28;20352;-66
2021/12/09 01:10:17;;;;;;;;;;;;;;;-3.66;100.00;90290.97;5091645;28;19959;-66
2021/12/09 01:12:43;;;;;;;;;;;;;;;-3.57;100.00;90282.75;5091531;28;20393;-66
2021/12/09 01:15:11;;;;;;;;;;;;;;;-3.53;100.00;90286.44;5091572;28;19928;-66
2021/12/09 01:17:37;;;;;;;;;;;;;;;-3.44;100.00;90285.81;5091572;28;19998;-66
2021/12/09 01:20:03;;;;;;;;;;;;;;;-3.43;100.00;90284.78;5091472;28;20035;-66
2021/12/09 01:22:36;;;;;;;;;;;;;;;-3.37;100.00;90283.81;5091360;28;19920;-66
2021/12/09 01:25:03;;;;;;;;;;;;;;;-3.42;100.00;90288.94;5091489;28;19969;-66
2021/12/09 01:27:31;;;;;;;;;;;;;;;-3.40;100.00;90292.09;5091713;28;19942;-66
2021/12/09 01:29:56;;;;;;;;;;;;;;;-3.30;100.00;90301.06;5095250;28;19924;-66
2021/12/09 01:32:27;;;;;;;;;;;;;;;-3.28;100.00;90304.97;5095179;28;19931;-66
2021/12/09 01:34:53;;;;;;;;;;;;;;;-3.21;100.00;90297.00;5095131;28;20319;-66
2021/12/09 01:37:18;;;;;;;;;;;;;;;-3.38;100.00;90297.84;5095117;28;19924;-66
2021/12/09 01:39:43;;;;;;;;;;;;;;;-3.47;100.00;90301.88;5094976;28;20420;-66
2021/12/09 01:42:09;;;;;;;;;;;;;;;-3.47;100.00;90308.88;5094919;28;19920;-67
2021/12/09 01:44:34;;;;;;;;;;;;;;;-3.45;100.00;90312.84;5095002;28;19990;-66
2021/12/09 01:47:00;;;;;;;;;;;;;;;-3.74;100.00;90316.59;5076709;28;19920;-66
2021/12/09 01:49:25;;;;;;;;;;;;;;;-3.78;100.00;90316.28;5094940;28;20393;-67
2021/12/09 01:51:51;;;;;;;;;;;;;;;-3.85;100.00;90326.03;5094740;28;19971;-66
2021/12/09 01:54:16;;;;;;;;;;;;;;;-3.89;100.00;90334.53;5094848;28;19920;-66
2021/12/09 01:56:42;;;;;;;;;;;;;;;-4.02;100.00;90328.63;5094826;28;19924;-66
2021/12/09 01:59:08;;;;;;;;;;;;;;;-4.01;100.00;90321.63;5094671;28;20000;-67
2021/12/09 02:01:35;;;;;;;;;;;;;;;-4.06;100.00;90334.56;5094465;28;20345;-66
2021/12/09 02:04:02;;;;;;;;;;;;;;;-4.04;100.00;90340.28;5094417;28;20512;-67
2021/12/09 02:06:28;;;;;;;;;;;;;;;-4.10;100.00;90336.84;5094860;28;19927;-66
2021/12/09 02:08:54;;;;;;;;;;;;;;;-4.09;100.00;90330.63;5094547;28;19963;-67
2021/12/09 02:11:20;;;;;;;;;;;;;;;-4.12;100.00;90336.25;5094361;28;19920;-67
2021/12/09 02:13:46;;;;;;;;;;;;;;;-4.08;100.00;90336.59;5094480;28;20339;-67
2021/12/09 02:16:13;;;;;;;;;;;;;;;-4.01;100.00;90338.00;5094443;28;19943;-67
2021/12/09 02:18:38;;;;;;;;;;;;;;;-4.05;100.00;90321.31;5094238;28;19924;-67
2021/12/09 02:21:10;;;;;;;;;;;;;;;-3.99;100.00;90325.56;5094286;28;19920;-67
2021/12/09 02:23:36;;;;;;;;;;;;;;;-3.92;100.00;90323.59;5094247;28;20088;-66
2021/12/09 02:26:02;;;;;;;;;;;;;;;-3.82;100.00;90319.56;5094200;28;19919;-67
2021/12/09 02:28:28;;;;;;;;;;;;;;;-3.84;100.00;90324.22;5094368;28;19987;-67
2021/12/09 02:30:53;;;;;;;;;;;;;;;-3.94;100.00;90306.69;5094111;28;19924;-67
2021/12/09 02:33:19;;;;;;;;;;;;;;;-3.84;100.00;90317.22;5093971;28;20011;-66
2021/12/09 02:35:44;;;;;;;;;;;;;;;-3.77;100.00;90317.84;5094031;28;19920;-66
2021/12/09 02:38:10;;;;;;;;;;;;;;;-3.73;100.00;90320.75;5093950;28;19969;-66
2021/12/09 02:40:36;;;;;;;;;;;;;;;-3.82;100.00;90329.97;5226996;22;19931;-67
2021/12/09 02:43:02;;;;;;;;;;;;;;;-3.84;100.00;90325.00;5094134;28;19924;-64
2021/12/09 02:45:28;;;;;;;;;;;;;;;-3.72;100.00;90328.31;5093852;28;19920;-64
2021/12/09 02:47:53;;;;;;;;;;;;;;;-3.76;100.00;90319.41;5093721;28;19920;-64
2021/12/09 02:50:18;;;;;;;;;;;;;;;-3.77;100.00;90312.66;5093559;28;19916;-64
2021/12/09 02:52:44;;;;;;;;;;;;;;;-3.76;100.00;90308.25;5093710;28;20010;-64
2021/12/09 02:55:09;;;;;;;;;;;;;;;-3.75;100.00;90305.41;5093615;28;19982;-64
2021/12/09 02:57:35;;;;;;;;;;;;;;;-3.83;100.00;90318.00;5093595;28;19920;-64
2021/12/09 03:00:00;;;;;;;;;;;;;;;-3.97;100.00;90314.94;5093414;28;20350;-64
2021/12/09 03:02:26;;;;;;;;;;;;;;;-3.89;100.00;90308.56;5093328;28;19916;-66
2021/12/09 03:04:53;;;;;;;;;;;;;;;-4.00;100.00;90297.22;5075325;28;19923;-64
2021/12/09 03:07:23;;;;;;;;;;;;;;;-4.10;100.00;90302.25;5093396;28;20037;-64
2021/12/09 03:09:51;;;;;;;;;;;;;;;-4.19;100.00;90309.66;5093309;28;19920;-64
2021/12/09 03:12:17;;;;;;;;;;;;;;;-4.18;100.00;90321.63;5093179;28;19916;-64
2021/12/09 03:14:43;;;;;;;;;;;;;;;-4.18;100.00;90319.03;5093589;28;19928;-64
2021/12/09 03:17:08;;;;;;;;;;;;;;;-4.28;100.00;90308.47;5075018;28;19978;-64
2021/12/09 03:19:33;;;;;;;;;;;;;;;-4.28;100.00;90305.88;5093168;28;19916;-64
2021/12/09 03:21:59;;;;;;;;;;;;;;;-4.30;100.00;90319.09;5092969;28;19922;-64
2021/12/09 03:24:24;;;;;;;;;;;;;;;-4.34;100.00;90330.19;5093070;28;19924;-64
2021/12/09 03:26:59;;;;;;;;;;;;;;;-4.28;100.00;90331.84;5074788;28;19920;-64
2021/12/09 03:29:25;;;;;;;;;;;;;;;-4.17;100.00;90323.19;5092912;28;19916;-64
2021/12/09 03:31:52;;;;;;;;;;;;;;;-4.13;100.00;90321.69;5092832;28;19966;-64
2021/12/09 03:34:18;;;;;;;;;;;;;;;-4.08;100.00;90319.22;5092858;28;19924;-64
2021/12/09 03:36:44;;;;;;;;;;;;;;;-4.05;100.00;90313.53;5092824;28;19920;-64
2021/12/09 03:39:13;;;;;;;;;;;;;;;-4.07;100.00;90301.81;5074641;28;19924;-64
2021/12/09 03:41:38;;;;;;;;;;;;;;;-4.07;100.00;90301.81;5092368;28;19924;-64
2021/12/09 03:44:04;;;;;;;;;;;;;;;-4.02;100.00;90317.47;5092733;28;19938;-64
2021/12/09 03:46:30;;;;;;;;;;;;;;;-3.95;100.00;90318.88;5092524;28;20415;-64
2021/12/09 03:48:55;;;;;;;;;;;;;;;-4.02;100.00;90320.84;5092512;28;19955;-66
2021/12/09 03:51:20;;;;;;;;;;;;;;;-4.08;100.00;90326.22;5091766;28;20027;-65
2021/12/09 03:53:46;;;;;;;;;;;;;;;-4.11;100.00;90318.88;5092493;28;19995;-66
2021/12/09 03:56:11;;;;;;;;;;;;;;;-4.11;100.00;90330.03;5092440;28;19916;-66
2021/12/09 03:58:36;;;;;;;;;;;;;;;-4.13;100.00;90333.91;5092411;28;19922;-67
2021/12/09 04:01:02;;;;;;;;;;;;;;;-4.11;100.00;90340.44;5092294;28;20084;-66
2021/12/09 04:03:28;;;;;;;;;;;;;;;-4.12;100.00;90341.44;5092359;28;20400;-66
2021/12/09 04:05:53;;;;;;;;;;;;;;;-4.17;100.00;90341.38;5092344;28;19923;-66
2021/12/09 04:08:21;;;;;;;;;;;;;;;-4.06;100.00;90344.94;5092238;28;19999;-66
2021/12/09 04:10:46;;;;;;;;;;;;;;;-3.95;100.00;90344.06;5092074;28;20054;-67
2021/12/09 04:13:11;;;;;;;;;;;;;;;-3.96;100.00;90348.47;5092249;28;20018;-66
2021/12/09 04:15:37;;;;;;;;;;;;;;;-3.97;100.00;90348.69;5082751;28;20001;-68
2021/12/09 04:18:03;;;;;;;;;;;;;;;-3.99;100.00;90355.94;5091335;28;20329;-67
2021/12/09 04:20:29;;;;;;;;;;;;;;;-4.08;100.00;90347.00;5091747;28;19920;-68
2021/12/09 04:22:54;;;;;;;;;;;;;;;-4.09;100.00;90358.41;5091800;28;19999;-67
2021/12/09 04:25:21;;;;;;;;;;;;;;;-4.03;100.00;90368.63;5091728;28;19969;-68
2021/12/09 04:27:46;;;;;;;;;;;;;;;-3.91;100.00;90363.38;5091797;28;19970;-67
2021/12/09 04:30:13;;;;;;;;;;;;;;;-3.87;100.00;90355.88;5091049;28;19920;-68
2021/12/09 04:32:38;;;;;;;;;;;;;;;-3.86;100.00;90355.63;5091691;28;19919;-66
2021/12/09 04:35:04;;;;;;;;;;;;;;;-3.90;100.00;90375.31;5091194;28;19916;-64
2021/12/09 04:37:30;;;;;;;;;;;;;;;-3.86;100.00;90367.84;5091658;28;19916;-65
2021/12/09 04:39:55;;;;;;;;;;;;;;;-3.80;100.00;90380.66;5091548;28;19974;-65
2021/12/09 04:42:21;;;;;;;;;;;;;;;-3.72;100.00;90380.28;5091150;28;20396;-65
2021/12/09 04:44:46;;;;;;;;;;;;;;;-3.68;100.00;90367.59;5091389;28;20312;-65
2021/12/09 04:47:11;;;;;;;;;;;;;;;-3.58;100.00;90372.97;5091545;28;19917;-65
2021/12/09 04:49:37;;;;;;;;;;;;;;;-3.59;100.00;90360.19;5091427;28;20385;-65
2021/12/09 04:52:04;;;;;;;;;;;;;;;-3.49;100.00;90363.72;5091356;28;19916;-65
2021/12/09 04:54:29;;;;;;;;;;;;;;;-3.53;100.00;90365.22;5091414;28;19971;-65
2021/12/09 04:56:55;;;;;;;;;;;;;;;-3.45;100.00;90361.44;5091675;28;19955;-65
2021/12/09 04:59:20;;;;;;;;;;;;;;;-3.46;100.00;90365.84;5090854;28;19923;-66
2021/12/09 05:01:49;;;;;;;;;;;;;;;-3.43;100.00;90360.19;5091950;28;19928;-65
2021/12/09 05:04:15;;;;;;;;;;;;;;;-3.21;100.00;90362.81;5095374;28;19916;-65
2021/12/09 05:06:40;;;;;;;;;;;;;;;-2.97;100.00;90363.38;5095405;28;19987;-65
2021/12/09 05:09:10;;;;;;;;;;;;;;;-2.99;100.00;90362.84;5095436;28;20379;-65
2021/12/09 05:14:02;;;;;;;;;;;;;;;-2.97;100.00;90362.59;5094928;28;20007;-67
2021/12/09 05:16:28;;;;;;;;;;;;;;;-2.97;100.00;90352.97;5095053;28;19916;-65
2021/12/09 05:18:58;;;;;;;;;;;;;;;-2.84;100.00;90370.03;5095018;28;19950;-66
2021/12/09 05:21:29;;;;;;;;;;;;;;;-2.93;100.00;90369.66;5095342;28;20365;-66
2021/12/09 05:23:55;;;;;;;;;;;;;;;-2.98;100.00;90377.41;5095417;28;19985;-66
2021/12/09 05:26:25;;;;;;;;;;;;;;;-3.02;100.00;90374.50;5095279;28;19916;-66
2021/12/09 05:28:55;;;;;;;;;;;;;;;-3.15;100.00;90376.69;5095051;28;19916;-66
2021/12/09 05:34:04;;;;;;;;;;;;;;;-2.90;100.00;90378.81;5095191;28;19982;-66
2021/12/09 05:36:30;;;;;;;;;;;;;;;-2.66;100.00;90392.38;5094965;28;19937;-66
2021/12/09 05:38:55;;;;;;;;;;;;;;;-2.52;100.00;90390.97;5095009;28;20007;-66
2021/12/09 05:41:21;;;;;;;;;;;;;;;-2.30;100.00;90389.13;5094790;28;19962;-66
2021/12/09 05:43:46;;;;;;;;;;;;;;;-2.04;100.00;90407.63;5095018;28;19947;-66
2021/12/09 05:46:12;;;;;;;;;;;;;;;-1.93;100.00;90394.44;5094943;28;19916;-66
2021/12/09 05:48:39;;;;;;;;;;;;;;;-1.89;100.00;90394.75;5094833;28;20325;-66
2021/12/09 05:51:04;;;;;;;;;;;;;;;-1.92;100.00;90400.44;5094764;28;20011;-66
2021/12/09 05:53:30;;;;;;;;;;;;;;;-1.92;100.00;90400.44;5094828;28;20011;-66
